Time;durP1;ratioP1;P1;durP2;ratioP2;P2;SDS_P1;SDS_P2;PMS_P1;PMS_P2;Temp;Humidity;BMP_temperature;BMP_pressure;BME280_temperature;BME280_humidity;BME280_pressure;Samples;Min_cycle;Max_cycle;Signal;HPM_P1;HPM_P2
2022/12/03 00:01:18;;;;;;;;;55.25;43.50;;;;;8.84;80.46;101527.69;146610;574;46034;-76
2022/12/03 00:04:14;;;;;;;;;39.75;32.25;;;;;10.34;80.61;101794.56;146613;615;46010;-76
2022/12/03 00:07:21;;;;;;;;;46.00;37.25;;;;;10.31;80.70;101792.69;146613;569;46012;-76
2022/12/03 00:10:26;;;;;;;;;47.25;37.00;;;;;10.24;80.74;101790.41;146612;578;46021;-75
2022/12/03 00:13:26;;;;;;;;;45.00;36.75;;;;;10.18;80.62;101785.69;146611;601;46016;-74
2022/12/03 00:16:35;;;;;;;;;54.00;44.00;;;;;10.15;80.78;101789.75;146608;677;46011;-71
2022/12/03 00:19:42;;;;;;;;;38.50;33.50;;;;;10.10;80.71;101793.75;146611;616;46012;-71
2022/12/03 00:22:35;;;;;;;;;38.00;32.25;;;;;10.08;80.72;101784.94;146613;607;46028;-71
2022/12/03 00:25:36;;;;;;;;;35.25;29.75;;;;;10.08;80.94;101798.81;146612;645;46016;-71
2022/12/03 00:28:46;;;;;;;;;34.25;30.50;;;;;10.10;80.79;101806.69;146612;665;46020;-71
2022/12/03 00:31:50;;;;;;;;;38.50;31.00;;;;;10.04;80.38;101801.97;146608;574;46016;-72
2022/12/03 00:34:48;;;;;;;;;37.00;32.75;;;;;9.95;80.23;101801.34;146613;564;46020;-74
2022/12/03 00:37:42;;;;;;;;;40.25;34.00;;;;;9.90;80.46;101800.09;146609;581;46016;-73
2022/12/03 00:40:37;;;;;;;;;34.00;29.00;;;;;9.82;80.34;101798.66;146610;567;46010;-73
2022/12/03 00:43:32;;;;;;;;;34.00;31.00;;;;;9.78;80.60;101804.41;146607;614;46915;-71
2022/12/03 00:46:39;;;;;;;;;39.50;31.75;;;;;9.74;81.47;101805.88;146614;625;46021;-74
2022/12/03 00:49:32;;;;;;;;;32.25;29.00;;;;;9.72;81.75;101810.06;146609;629;46915;-73
2022/12/03 00:52:35;;;;;;;;;29.00;26.00;;;;;6.91;81.20;101313.03;146614;611;46020;-73
2022/12/03 00:55:30;;;;;;;;;27.00;24.75;;;;;9.69;81.13;101807.25;146610;617;46916;-72
2022/12/03 00:58:32;;;;;;;;;26.25;24.00;;;;;7.79;81.34;101478.75;146612;573;46012;-73
2022/12/03 01:01:43;;;;;;;;;;;;;;;;;;;;;
2022/12/03 01:04:56;;;;;;;;;27.00;26.00;;;;;9.60;82.00;101804.00;146608;569;46010;-74
2022/12/03 01:07:52;;;;;;;;;28.25;25.50;;;;;9.56;81.55;101814.91;146605;564;46017;-74
2022/12/03 01:10:50;;;;;;;;;28.00;26.00;;;;;9.49;81.96;101813.56;146613;571;46021;-74
2022/12/03 01:13:45;;;;;;;;;24.50;20.50;;;;;9.47;82.68;101825.50;146608;617;46016;-71
2022/12/03 01:16:38;;;;;;;;;24.75;22.00;;;;;9.43;82.42;101818.28;146608;564;46012;-71
2022/12/03 01:19:50;;;;;;;;;21.00;19.50;;;;;7.81;82.06;101536.53;146608;678;48014;-74
2022/12/03 01:22:58;;;;;;;;;30.00;25.50;;;;;9.43;82.70;101818.28;146613;662;46021;-71
2022/12/03 01:26:00;;;;;;;;;17.75;16.75;;;;;9.45;82.90;101822.78;146609;569;46016;-72
2022/12/03 01:29:12;;;;;;;;;14.75;13.75;;;;;7.86;82.00;101545.53;146615;565;46020;-73
2022/12/03 01:32:28;;;;;;;;;;;;;;;;;;;;;
2022/12/03 01:35:35;;;;;;;;;;;;;;;;;;;;;
2022/12/03 01:38:42;;;;;;;;;14.75;13.00;;;;;9.38;81.95;101804.13;146611;724;46012;-75
2022/12/03 01:41:38;;;;;;;;;11.50;9.25;;;;;9.49;82.39;101821.31;146615;607;46020;-76
2022/12/03 01:44:52;;;;;;;;;9.25;8.00;;;;;9.48;82.17;101822.12;146617;573;46015;-76
2022/12/03 01:47:53;;;;;;;;;13.50;11.00;;;;;9.46;82.30;101822.00;146617;638;47020;-75
2022/12/03 01:50:49;;;;;;;;;12.50;10.25;;;;;9.43;82.59;101818.28;146611;615;46016;-76
2022/12/03 01:53:54;;;;;;;;;12.00;10.25;;;;;9.44;82.57;101822.69;146615;597;46020;-76
2022/12/03 01:56:52;;;;;;;;;9.50;9.25;;;;;9.44;82.52;101814.94;146614;566;46915;-76
2022/12/03 01:59:56;;;;;;;;;12.75;10.75;;;;;9.41;82.51;101812.13;146620;660;46028;-75
2022/12/03 02:02:59;;;;;;;;;9.25;8.75;;;;;9.39;82.23;101806.81;146610;687;46012;-74
2022/12/03 02:06:09;;;;;;;;;16.50;13.00;;;;;9.36;82.52;101800.53;146620;672;46020;-73
2022/12/03 02:09:07;;;;;;;;;19.75;16.00;;;;;9.35;83.16;101811.66;146618;581;46013;-73
2022/12/03 02:11:59;;;;;;;;;13.75;10.50;;;;;9.34;82.53;101809.84;146619;611;46010;-73
2022/12/03 02:15:05;;;;;;;;;15.75;14.75;;;;;9.35;82.86;101803.91;146615;600;46013;-74
2022/12/03 02:18:13;;;;;;;;;8.75;8.75;;;;;9.32;82.41;101802.00;146614;666;46010;-73
2022/12/03 02:21:36;;;;;;;;;9.75;8.75;;;;;6.58;81.70;101327.75;146615;598;46916;-73
2022/12/03 02:25:30;;;;;;;;;15.25;11.75;;;;;7.61;81.45;101510.94;146618;568;47010;-73
2022/12/03 02:28:44;;;;;;;;;16.00;12.25;;;;;9.20;82.18;101794.22;146616;687;46012;-73
2022/12/03 02:31:44;;;;;;;;;13.50;11.50;;;;;9.16;82.36;101793.88;146620;571;46010;-72
2022/12/03 02:34:44;;;;;;;;;16.00;13.25;;;;;9.12;82.76;101794.44;146614;643;46016;-75
2022/12/03 02:37:40;;;;;;;;;14.25;12.50;;;;;9.11;82.84;101792.63;146621;582;46021;-73
2022/12/03 02:40:40;;;;;;;;;15.00;13.00;;;;;9.12;82.97;101799.59;146615;596;46016;-73
2022/12/03 02:43:39;;;;;;;;;12.50;10.00;;;;;9.10;83.16;101799.50;146621;575;46024;-74
2022/12/03 02:46:31;;;;;;;;;13.50;12.25;;;;;9.11;83.31;101792.63;146615;576;46016;-73
2022/12/03 02:49:26;;;;;;;;;16.25;12.50;;;;;9.09;83.08;101784.75;146616;592;46010;-73
2022/12/03 02:52:18;;;;;;;;;14.75;11.25;;;;;9.09;82.80;101794.19;146617;601;46015;-77
2022/12/03 02:55:13;;;;;;;;;13.75;13.50;;;;;9.07;82.83;101801.88;146618;564;46010;-77
2022/12/03 02:58:07;;;;;;;;;11.25;11.00;;;;;9.08;83.08;101802.75;146612;628;47915;-76
2022/12/03 03:00:59;;;;;;;;;14.75;12.75;;;;;9.07;82.91;101800.97;146620;674;46021;-76
2022/12/03 03:03:57;;;;;;;;;18.00;12.00;;;;;9.04;82.83;101798.16;146614;736;46016;-76
2022/12/03 03:06:49;;;;;;;;;15.00;13.25;;;;;9.02;83.10;101798.03;146613;586;46020;-76
2022/12/03 03:09:47;;;;;;;;;16.75;14.25;;;;;8.96;83.10;101798.47;146603;619;48016;-71
2022/12/03 03:12:43;;;;;;;;;14.25;12.00;;;;;8.92;83.02;101795.53;146611;663;46010;-71
2022/12/03 03:15:47;;;;;;;;;12.75;11.00;;;;;8.90;83.23;101791.94;146611;564;46013;-73
2022/12/03 03:18:41;;;;;;;;;14.75;12.50;;;;;8.87;83.24;101795.19;146606;580;46020;-73
2022/12/03 03:21:38;;;;;;;;;12.75;11.25;;;;;8.88;83.89;101798.66;146611;630;46033;-76
2022/12/03 03:24:51;;;;;;;;;14.00;12.75;;;;;8.88;83.46;101807.34;146613;581;46021;-74
2022/12/03 03:27:48;;;;;;;;;13.25;13.25;;;;;8.88;83.97;101796.06;146609;582;46016;-75
2022/12/03 03:30:50;;;;;;;;;13.50;12.50;;;;;8.88;83.56;101807.34;146611;587;46021;-75
2022/12/03 03:33:46;;;;;;;;;13.25;11.50;;;;;8.86;83.47;101801.16;146609;612;46915;-75
2022/12/03 03:36:50;;;;;;;;;15.75;12.50;;;;;8.86;84.12;101802.84;146612;580;46010;-75
2022/12/03 03:39:55;;;;;;;;;11.50;11.25;;;;;8.85;83.85;101804.53;146609;605;46016;-72
2022/12/03 03:43:05;;;;;;;;;13.50;10.00;;;;;8.86;83.84;101798.56;146615;573;46020;-72
2022/12/03 03:46:16;;;;;;;;;14.25;12.25;;;;;8.91;83.47;101811.81;146611;586;46027;-72
2022/12/03 03:49:11;;;;;;;;;12.00;8.00;;;;;8.91;83.99;101814.41;146608;705;46020;-72
2022/12/03 03:52:10;;;;;;;;;9.00;9.00;;;;;8.89;83.64;101810.84;146619;723;46013;-73
2022/12/03 03:55:09;;;;;;;;;10.00;10.00;;;;;8.89;83.88;101816.00;146618;567;47020;-78
2022/12/03 03:58:06;;;;;;;;;11.75;10.00;;;;;8.89;83.36;101819.50;146611;573;46016;-78
2022/12/03 04:01:01;;;;;;;;;9.50;9.00;;;;;8.88;83.68;101819.34;146613;602;46012;-77
2022/12/03 04:03:56;;;;;;;;;9.00;7.00;;;;;8.87;83.06;101827.91;146617;643;46016;-76
2022/12/03 04:06:54;;;;;;;;;11.00;7.25;;;;;8.86;83.63;101827.00;146621;570;46011;-77
2022/12/03 04:09:50;;;;;;;;;6.75;6.00;;;;;8.88;83.18;101840.03;146619;564;46012;-76
2022/12/03 04:12:58;;;;;;;;;10.00;9.00;;;;;8.88;83.13;101846.16;146620;593;46020;-77
2022/12/03 04:15:50;;;;;;;;;8.00;7.00;;;;;8.87;83.51;101841.75;146610;594;46916;-76
2022/12/03 04:18:46;;;;;;;;;10.00;9.00;;;;;8.88;83.15;101840.03;146611;593;46020;-76
2022/12/03 04:28:47;;;;;;;;;9.50;6.75;;;;;8.84;83.24;101845.78;146616;590;48008;-76
2022/12/03 04:38:03;;;;;;;;;11.00;9.50;;;;;8.87;82.68;101853.78;146624;590;46010;-75
2022/12/03 04:41:00;;;;;;;;;7.00;7.00;;;;;8.84;83.12;101848.38;146617;571;46014;-75
2022/12/03 04:47:37;;;;;;;;;8.75;6.75;;;;;7.05;83.00;101541.00;146618;740;46016;-76
2022/12/03 04:50:33;;;;;;;;;8.75;8.00;;;;;8.93;83.62;101856.84;146615;576;46010;-71
2022/12/03 04:53:35;;;;;;;;;11.00;9.00;;;;;7.41;83.44;101591.97;146615;620;46017;-72
2022/12/03 04:56:51;;;;;;;;;15.25;10.50;;;;;8.97;83.04;101861.44;146620;577;46010;-74
2022/12/03 04:59:52;;;;;;;;;11.00;8.50;;;;;9.02;83.44;101867.87;146610;610;46017;-74
2022/12/03 05:03:02;;;;;;;;;9.25;7.50;;;;;7.47;83.69;101589.87;146619;581;46020;-73
2022/12/03 05:06:07;;;;;;;;;10.75;9.50;;;;;9.08;83.61;101868.34;146632;589;45915;-75
2022/12/03 05:09:07;;;;;;;;;9.50;8.75;;;;;9.12;83.41;101872.06;146637;563;45020;-69
2022/12/03 05:12:12;;;;;;;;;13.00;10.00;;;;;9.14;83.43;101880.84;146634;589;45016;-70
2022/12/03 05:15:13;;;;;;;;;11.50;11.00;;;;;9.18;83.89;101890.63;146636;590;45010;-69
2022/12/03 05:18:15;;;;;;;;;15.50;11.75;;;;;9.23;83.44;101881.53;146627;606;46012;-69
2022/12/03 05:21:11;;;;;;;;;17.50;15.75;;;;;9.24;84.15;101879.03;146629;631;46010;-70
2022/12/03 05:24:23;;;;;;;;;17.25;14.50;;;;;9.27;83.70;101885.25;146632;579;45012;-70
2022/12/03 05:27:26;;;;;;;;;;;;;;;;;;;;;
2022/12/03 05:30:24;;;;;;;;;15.50;15.00;;;;;9.22;84.56;101883.22;146634;741;45016;-75
2022/12/03 05:33:19;;;;;;;;;14.75;13.00;;;;;9.20;84.34;101891.66;146632;606;46012;-74
2022/12/03 05:36:24;;;;;;;;;17.50;15.75;;;;;9.19;84.48;101885.59;146637;612;44022;-75
2022/12/03 05:39:22;;;;;;;;;17.75;14.25;;;;;9.26;84.66;101884.34;146639;565;45010;-74
2022/12/03 05:45:36;;;;;;;;;17.00;13.25;;;;;9.30;84.58;101888.97;146637;606;44021;-74
2022/12/03 05:48:30;;;;;;;;;15.75;14.75;;;;;9.32;84.46;101882.22;146635;565;45012;-74
2022/12/03 05:51:29;;;;;;;;;9.75;8.25;;;;;9.37;85.01;101891.22;146633;575;45020;-75
2022/12/03 05:54:32;;;;;;;;;12.25;10.00;;;;;9.40;84.72;101888.84;146636;581;46014;-75
2022/12/03 05:57:29;;;;;;;;;12.50;11.50;;;;;9.46;85.20;101889.31;146640;696;44020;-73
2022/12/03 06:00:38;;;;;;;;;12.75;10.00;;;;;9.51;84.72;101894.84;146614;618;47012;-74
2022/12/03 06:03:52;;;;;;;;;10.00;9.50;;;;;9.57;85.12;101899.59;146628;612;45020;-74
2022/12/03 06:06:51;;;;;;;;;9.75;9.75;;;;;9.60;85.62;101899.81;146615;620;46014;-74
2022/12/03 06:09:47;;;;;;;;;11.00;10.00;;;;;9.63;85.46;101903.53;146617;583;46012;-74
2022/12/03 06:13:02;;;;;;;;;12.00;9.00;;;;;8.15;84.95;101633.75;146604;594;47892;-72
2022/12/03 06:16:00;;;;;;;;;8.50;7.00;;;;;9.81;85.82;101916.00;146618;581;46010;-68
2022/12/03 06:18:55;;;;;;;;;9.00;9.00;;;;;9.88;86.34;101919.16;146614;577;46016;-71
2022/12/03 06:21:54;;;;;;;;;10.50;8.00;;;;;9.92;86.05;101921.19;146613;571;46010;-71
2022/12/03 06:24:49;;;;;;;;;9.25;7.25;;;;;10.01;85.53;101917.47;146612;643;46016;-78
2022/12/03 06:27:48;;;;;;;;;10.00;8.75;;;;;10.11;85.80;101912.16;146620;587;46010;-77
2022/12/03 06:30:43;;;;;;;;;14.00;13.00;;;;;10.21;85.37;101909.41;146615;615;46016;-73
2022/12/03 06:33:35;;;;;;;;;26.00;23.00;;;;;10.29;85.17;101915.22;146612;600;46020;-71
2022/12/03 06:36:55;;;;;;;;;;;;;;;;;;;;;
2022/12/03 06:39:54;;;;;;;;;71.75;54.00;;;;;10.45;84.94;101920.69;146610;563;47010;-71
2022/12/03 06:42:49;;;;;;;;;70.75;52.00;;;;;10.54;84.99;101921.34;146611;583;46017;-72
2022/12/03 06:45:53;;;;;;;;;20.25;15.00;;;;;10.63;85.08;101924.56;146613;571;46020;-70
2022/12/03 06:48:59;;;;;;;;;23.50;20.00;;;;;10.73;84.78;101923.50;146612;580;46016;-70
2022/12/03 06:52:06;;;;;;;;;38.25;30.75;;;;;10.83;84.78;101919.84;146606;580;46010;-70
2022/12/03 06:55:09;;;;;;;;;35.25;30.00;;;;;10.94;85.16;101929.31;146608;604;48012;-69
2022/12/03 06:58:01;;;;;;;;;32.50;25.50;;;;;11.01;85.18;101931.50;146613;590;46011;-70
2022/12/03 07:00:56;;;;;;;;;40.50;33.50;;;;;11.05;84.49;101933.50;146612;621;46016;-74
2022/12/03 07:03:59;;;;;;;;;34.75;30.50;;;;;11.14;84.22;101942.72;146614;693;46020;-72
2022/12/03 07:06:54;;;;;;;;;35.25;29.25;;;;;9.87;84.20;101704.03;146616;636;46016;-71
2022/12/03 07:09:48;;;;;;;;;42.25;34.75;;;;;11.30;84.43;101936.06;146621;609;46020;-72
2022/12/03 07:12:49;;;;;;;;;40.00;31.75;;;;;11.41;84.10;101935.94;146616;622;46017;-71
2022/12/03 07:15:46;;;;;;;;;32.75;29.50;;;;;11.53;83.76;101940.25;146620;592;46010;-71
2022/12/03 07:18:46;;;;;;;;;20.50;18.25;;;;;11.66;83.62;101934.16;146616;642;46012;-72
2022/12/03 07:21:44;;;;;;;;;15.75;14.75;;;;;10.47;83.54;101709.06;146611;578;46010;-70
2022/12/03 07:24:39;;;;;;;;;12.00;10.50;;;;;11.92;83.01;101951.47;146617;580;46915;-70
2022/12/03 07:27:37;;;;;;;;;21.25;19.50;;;;;12.02;82.27;101945.16;146621;588;46010;-71
2022/12/03 07:30:41;;;;;;;;;19.25;16.50;;;;;12.10;82.09;101943.09;146614;569;46014;-72
2022/12/03 07:33:37;;;;;;;;;20.25;18.25;;;;;12.15;81.36;101950.38;146618;573;46020;-71
2022/12/03 07:36:37;;;;;;;;;25.75;21.00;;;;;12.20;81.17;101951.56;146616;572;46016;-70
2022/12/03 07:39:32;;;;;;;;;23.00;20.00;;;;;12.24;80.67;101950.06;146619;602;46020;-71
2022/12/03 07:42:34;;;;;;;;;26.00;23.50;;;;;12.29;80.68;101947.75;146617;584;46016;-72
2022/12/03 07:45:29;;;;;;;;;23.50;20.75;;;;;12.33;81.07;101945.44;146620;586;46020;-71
2022/12/03 07:48:22;;;;;;;;;29.25;28.25;;;;;12.41;81.17;101951.16;146617;584;46016;-73
2022/12/03 07:51:17;;;;;;;;;37.50;32.00;;;;;12.46;80.67;101955.84;146614;597;46021;-71
2022/12/03 07:54:24;;;;;;;;;53.50;44.00;;;;;12.53;80.67;101951.91;146618;565;46012;-71
2022/12/03 07:57:18;;;;;;;;;51.50;41.00;;;;;12.58;80.30;101947.00;146619;720;46010;-70
2022/12/03 08:00:23;;;;;;;;;47.50;38.50;;;;;12.60;80.10;101940.19;146616;592;46014;-71
2022/12/03 08:03:27;;;;;;;;;58.50;44.25;;;;;12.66;80.37;101953.59;146620;578;46020;-70
2022/12/03 08:06:20;;;;;;;;;66.00;51.50;;;;;12.70;80.56;101948.66;146612;702;46017;-71
2022/12/03 08:09:21;;;;;;;;;61.50;47.25;;;;;12.78;80.97;101951.75;146612;585;47010;-72
2022/12/03 08:12:51;;;;;;;;;;;;;;;;;;;;;
2022/12/03 08:15:49;;;;;;;;;52.50;43.25;;;;;12.94;80.81;101959.69;146613;570;46020;-70
2022/12/03 08:18:44;;;;;;;;;15.00;15.00;;;;;12.99;80.48;101957.38;146610;683;46016;-71
2022/12/03 08:21:40;;;;;;;;;15.00;13.75;;;;;13.04;81.24;101958.53;146605;570;46020;-70
2022/12/03 08:24:36;;;;;;;;;15.50;13.25;;;;;13.12;81.57;101961.63;146608;611;46016;-70
2022/12/03 08:27:40;;;;;;;;;10.00;9.25;;;;;13.16;80.88;101954.06;146617;575;46021;-71
2022/12/03 08:30:51;;;;;;;;;11.00;11.00;;;;;13.21;80.79;101956.03;146617;576;46012;-71
2022/12/03 08:34:04;;;;;;;;;7.25;6.50;;;;;13.24;81.07;101959.75;146612;593;46021;-70
2022/12/03 08:37:07;;;;;;;;;11.75;7.75;;;;;13.27;80.31;101956.44;146618;596;46016;-70
2022/12/03 08:40:20;;;;;;;;;22.25;18.75;;;;;13.32;80.68;101965.44;146621;600;46027;-70
2022/12/03 08:43:30;;;;;;;;;12.50;12.50;;;;;13.38;80.31;101961.50;146610;569;46016;-70
2022/12/03 08:46:28;;;;;;;;;13.75;12.75;;;;;13.49;81.04;101956.00;146611;636;46010;-70
2022/12/03 08:49:32;;;;;;;;;15.00;14.00;;;;;13.58;80.59;101951.34;146610;584;46017;-71
2022/12/03 08:52:37;;;;;;;;;17.00;16.25;;;;;10.91;79.74;101467.22;146607;657;46020;-70
2022/12/03 08:55:44;;;;;;;;;10.50;9.50;;;;;13.72;78.73;101946.94;146611;638;46017;-70
2022/12/03 08:58:52;;;;;;;;;24.75;19.25;;;;;13.77;78.62;101949.03;146615;590;48021;-72
2022/12/03 09:01:53;;;;;;;;;11.00;10.00;;;;;13.80;78.49;101951.81;146607;569;46016;-72
2022/12/03 09:04:53;;;;;;;;;52.25;41.50;;;;;13.84;78.98;101958.97;146610;583;46011;-71
2022/12/03 09:07:45;;;;;;;;;58.75;45.75;;;;;13.91;79.22;101956.72;146609;578;46016;-71
2022/12/03 09:10:57;;;;;;;;;11.50;11.50;;;;;13.96;78.31;101952.69;146613;599;47013;-71
2022/12/03 09:14:01;;;;;;;;;15.75;14.75;;;;;12.87;78.49;101750.97;146610;595;46012;-70
2022/12/03 09:17:02;;;;;;;;;13.50;12.00;;;;;14.08;78.66;101945.53;146614;608;46020;-70
2022/12/03 09:20:19;;;;;;;;;16.25;15.25;;;;;14.14;78.77;101953.69;146601;638;47922;-70
2022/12/03 09:23:23;;;;;;;;;14.50;14.25;;;;;14.18;78.70;101946.97;146607;616;46012;-70
2022/12/03 09:26:15;;;;;;;;;5.75;5.50;;;;;14.18;78.02;101952.19;146612;565;46021;-70
2022/12/03 09:29:23;;;;;;;;;6.00;4.75;;;;;12.60;77.84;101673.09;146621;688;46020;-70
2022/12/03 09:32:18;;;;;;;;;11.50;8.75;;;;;14.13;78.03;101946.69;146618;598;46016;-70
2022/12/03 09:35:15;;;;;;;;;14.00;10.75;;;;;14.07;78.28;101951.56;146620;565;46020;-70
2022/12/03 09:38:14;;;;;;;;;8.75;8.75;;;;;14.00;78.65;101954.66;146610;597;46016;-70
2022/12/03 09:41:16;;;;;;;;;6.75;5.25;;;;;12.64;79.62;101732.28;146619;576;46011;-70
2022/12/03 09:44:09;;;;;;;;;16.25;14.50;;;;;13.82;80.50;101957.97;146616;606;46014;-70
2022/12/03 09:47:10;;;;;;;;;17.50;14.50;;;;;13.71;80.45;101950.38;146614;599;46020;-70
2022/12/03 09:50:06;;;;;;;;;12.25;10.25;;;;;13.68;80.73;101956.31;146611;593;46016;-70
2022/12/03 09:53:24;;;;;;;;;7.50;6.50;;;;;11.10;80.18;101516.84;146607;582;46010;-70
2022/12/03 09:56:27;;;;;;;;;6.75;6.00;;;;;13.53;81.62;101948.47;146617;693;46017;-71
2022/12/03 09:59:21;;;;;;;;;4.75;4.75;;;;;13.49;83.21;101942.97;146623;572;46010;-70
2022/12/03 10:02:38;;;;;;;;;8.00;8.00;;;;;12.02;82.92;101693.94;146617;569;46917;-70
2022/12/03 10:05:32;;;;;;;;;12.25;10.50;;;;;13.44;84.29;101944.44;146631;563;46012;-70
2022/12/03 10:08:30;;;;;;;;;22.00;17.50;;;;;13.39;83.96;101934.66;146631;586;45016;-72
2022/12/03 10:11:28;;;;;;;;;33.75;28.25;;;;;13.37;83.97;101943.19;146636;566;45021;-70
2022/12/03 10:14:23;;;;;;;;;48.75;37.75;;;;;13.32;83.82;101932.47;146631;572;45917;-72
2022/12/03 10:17:22;;;;;;;;;49.50;40.25;;;;;13.31;83.87;101946.31;146633;572;45020;-70
2022/12/03 10:20:26;;;;;;;;;44.00;33.50;;;;;13.27;84.27;101938.22;146633;644;45016;-71
2022/12/03 10:23:42;;;;;;;;;28.75;25.25;;;;;13.26;84.45;101939.03;146628;621;45012;-70
2022/12/03 10:27:01;;;;;;;;;32.00;26.50;;;;;10.68;84.05;101493.41;146631;686;45012;-70
2022/12/03 10:30:07;;;;;;;;;23.00;20.25;;;;;13.19;85.25;101927.31;146633;597;45048;-71
2022/12/03 10:33:25;;;;;;;;;20.75;17.25;;;;;11.73;85.16;101681.72;146624;584;46012;-70
2022/12/03 10:36:29;;;;;;;;;31.25;30.00;;;;;13.13;85.84;101921.75;146635;573;45020;-70
2022/12/03 10:39:21;;;;;;;;;53.25;42.50;;;;;13.12;85.94;101918.25;146632;581;47012;-71
2022/12/03 10:42:35;;;;;;;;;47.00;38.75;;;;;13.13;85.55;101919.13;146637;577;45021;-71
2022/12/03 10:45:36;;;;;;;;;48.00;38.25;;;;;13.15;85.57;101909.72;146635;638;45016;-72
2022/12/03 10:48:39;;;;;;;;;47.25;38.25;;;;;13.16;85.97;101907.19;146634;573;45021;-72
2022/12/03 10:51:34;;;;;;;;;57.00;44.00;;;;;13.19;86.32;101909.09;146632;702;46917;-70
2022/12/03 10:54:40;;;;;;;;;60.00;45.50;;;;;13.22;86.09;101914.47;146629;598;45012;-72
2022/12/03 10:57:41;;;;;;;;;57.25;45.00;;;;;13.25;86.26;101909.47;146630;576;46012;-71
2022/12/03 11:00:34;;;;;;;;;52.25;40.50;;;;;13.28;86.38;101909.66;146630;620;45012;-71
2022/12/03 11:03:32;;;;;;;;;55.50;45.75;;;;;13.29;86.68;101910.56;146623;619;46034;-71
2022/12/03 11:06:26;;;;;;;;;50.00;40.75;;;;;13.31;86.76;101906.34;146612;634;46020;-71
2022/12/03 11:09:24;;;;;;;;;57.00;45.50;;;;;13.31;86.55;101902.03;146609;590;46016;-71
2022/12/03 11:12:26;;;;;;;;;61.50;47.50;;;;;13.32;86.94;101901.22;146612;646;45020;-71
2022/12/03 11:15:19;;;;;;;;;61.00;48.50;;;;;13.32;86.83;101901.22;146597;580;49918;-71
2022/12/03 11:18:12;;;;;;;;;59.00;46.00;;;;;13.31;86.71;101898.53;146614;591;46020;-71
2022/12/03 11:21:15;;;;;;;;;45.50;38.00;;;;;13.31;86.43;101902.03;146609;604;46016;-71
2022/12/03 11:24:34;;;;;;;;;;;;;;;;;;;;;
2022/12/03 11:27:38;;;;;;;;;35.00;32.00;;;;;13.32;86.71;101900.31;146606;616;48014;-71
2022/12/03 11:31:10;;;;;;;;;38.75;32.75;;;;;13.32;86.17;101898.59;146613;593;46020;-71
2022/12/03 11:34:45;;;;;;;;;41.00;33.25;;;;;10.51;85.59;101404.19;146608;630;46012;-71
2022/12/03 11:37:40;;;;;;;;;35.75;29.50;;;;;13.33;86.71;101892.62;146611;583;47010;-71
2022/12/03 11:40:38;;;;;;;;;29.00;26.00;;;;;13.35;86.69;101885.75;146609;575;46017;-71
2022/12/03 11:44:30;;;;;;;;;28.50;25.50;;;;;10.62;85.07;101411.84;146610;625;46020;-71
2022/12/03 11:47:26;;;;;;;;;30.25;26.25;;;;;13.37;86.47;101881.56;146613;580;46017;-71
2022/12/03 11:50:34;;;;;;;;;22.00;19.00;;;;;13.38;86.56;101890.25;146609;607;47010;-71
2022/12/03 11:53:32;;;;;;;;;23.00;21.00;;;;;13.37;86.55;101883.25;146611;679;46016;-71
2022/12/03 11:57:01;;;;;;;;;22.25;19.25;;;;;13.35;85.73;101877.06;146604;611;46020;-72
2022/12/03 12:00:30;;;;;;;;;30.00;26.25;;;;;13.35;85.75;101880.56;146610;644;46012;-71
2022/12/03 12:03:51;;;;;;;;;26.00;24.75;;;;;10.61;85.26;101398.75;146608;600;46021;-72
2022/12/03 12:06:59;;;;;;;;;46.25;36.00;;;;;12.13;85.91;101662.50;146617;730;46916;-71
2022/12/03 12:10:06;;;;;;;;;41.25;35.25;;;;;13.38;86.09;101872.91;146615;592;46010;-72
2022/12/03 12:13:10;;;;;;;;;51.25;42.75;;;;;13.40;86.47;101873.03;146615;566;47012;-71
2022/12/03 12:16:08;;;;;;;;;38.00;32.25;;;;;13.43;86.42;101873.19;146621;629;46020;-71
2022/12/03 12:19:40;;;;;;;;;45.00;36.25;;;;;10.67;85.64;101383.56;146615;607;46016;-71
2022/12/03 12:22:45;;;;;;;;;31.50;30.25;;;;;13.46;86.73;101875.06;146620;610;46020;-71
2022/12/03 12:26:08;;;;;;;;;46.00;37.50;;;;;11.09;85.83;101452.75;146614;652;46017;-70
2022/12/03 12:29:04;;;;;;;;;65.25;53.25;;;;;13.45;86.66;101865.47;146614;570;46012;-70
2022/12/03 12:32:15;;;;;;;;;73.75;65.75;;;;;13.45;86.20;101861.13;146616;586;46017;-70
2022/12/03 12:35:31;;;;;;;;;61.25;49.75;;;;;11.00;85.68;101443.53;146618;656;46010;-71
2022/12/03 12:38:28;;;;;;;;;39.50;34.00;;;;;13.42;86.59;101850.53;146619;631;47014;-72
2022/12/03 12:41:23;;;;;;;;;17.50;17.00;;;;;13.47;86.44;101863.84;146615;611;46914;-71
2022/12/03 12:44:22;;;;;;;;;18.25;18.00;;;;;13.45;86.52;101862.84;146616;591;46016;-71
2022/12/03 12:47:31;;;;;;;;;30.00;28.50;;;;;13.44;86.40;101864.56;146617;608;46028;-71
2022/12/03 12:50:23;;;;;;;;;21.75;21.00;;;;;13.45;86.59;101860.25;146615;569;47012;-71
2022/12/03 12:53:47;;;;;;;;;26.50;23.00;;;;;13.44;86.73;101861.06;146618;569;46010;-71
2022/12/03 12:56:46;;;;;;;;;46.00;35.25;;;;;13.47;86.96;101871.66;146615;586;46915;-71
2022/12/03 12:59:44;;;;;;;;;35.50;30.75;;;;;13.43;86.29;101862.78;146616;565;46029;-71
2022/12/03 13:03:05;;;;;;;;;38.00;32.50;;;;;13.43;86.09;101872.28;146616;587;46017;-70
2022/12/03 13:06:04;;;;;;;;;24.00;22.75;;;;;13.40;85.89;101867.81;146632;595;46012;-71
2022/12/03 13:08:59;;;;;;;;;21.50;19.00;;;;;13.38;85.96;101867.72;146631;594;45918;-71
2022/12/03 13:12:15;;;;;;;;;28.50;23.25;;;;;13.33;85.67;101863.97;146625;601;46010;-72
2022/12/03 13:15:50;;;;;;;;;41.75;31.50;;;;;10.48;84.44;101376.37;146632;602;45016;-71
2022/12/03 13:18:58;;;;;;;;;36.75;29.00;;;;;13.20;85.00;101863.09;146637;661;45010;-71
2022/12/03 13:21:53;;;;;;;;;34.50;29.50;;;;;13.18;85.56;101860.41;146632;579;45015;-71
2022/12/03 13:25:28;;;;;;;;;26.25;23.25;;;;;10.49;84.78;101387.62;146635;576;45011;-70
2022/12/03 13:28:36;;;;;;;;;19.50;17.50;;;;;13.16;85.65;101849.91;146633;576;45917;-70
2022/12/03 13:31:59;;;;;;;;;17.75;16.75;;;;;10.51;85.13;101392.09;146629;678;45021;-71
2022/12/03 13:35:11;;;;;;;;;26.50;21.50;;;;;13.16;86.04;101849.91;146629;606;45917;-70
2022/12/03 13:38:06;;;;;;;;;18.25;17.25;;;;;13.18;85.85;101857.81;146632;574;46010;-70
2022/12/03 13:44:50;;;;;;;;;23.75;20.50;;;;;13.19;86.03;101854.41;146633;580;45010;-72
2022/12/03 13:48:02;;;;;;;;;28.00;24.50;;;;;13.21;86.29;101850.19;146631;601;45012;-70
2022/12/03 13:51:02;;;;;;;;;33.50;29.00;;;;;13.22;86.42;101858.88;146633;746;46010;-71
2022/12/03 13:53:56;;;;;;;;;30.25;28.25;;;;;13.22;86.51;101854.56;146633;641;45016;-71
2022/12/03 13:56:51;;;;;;;;;34.00;27.75;;;;;13.23;86.55;101853.75;146635;569;45020;-70
2022/12/03 14:00:10;;;;;;;;;30.00;27.75;;;;;13.23;86.72;101861.56;146631;715;46012;-71
2022/12/03 14:03:02;;;;;;;;;26.50;22.25;;;;;13.26;86.77;101859.19;146628;620;45010;-71
2022/12/03 14:05:55;;;;;;;;;29.00;25.75;;;;;13.29;86.98;101854.16;146611;587;46016;-70
2022/12/03 14:08:47;;;;;;;;;35.00;27.25;;;;;13.31;87.27;101855.16;146614;622;47010;-70
2022/12/03 14:14:59;;;;;;;;;46.25;36.25;;;;;13.36;86.77;101864.13;146614;622;46021;-70
2022/12/03 14:17:59;;;;;;;;;58.00;43.50;;;;;13.39;87.26;101866.00;146608;618;47918;-70
2022/12/03 14:21:07;;;;;;;;;55.00;41.00;;;;;13.40;87.10;101873.03;146614;690;46020;-71
2022/12/03 14:24:24;;;;;;;;;;;;;;;;;;;;;
2022/12/03 14:27:30;;;;;;;;;;;;;;;;;;;;;
2022/12/03 14:30:28;;;;;;;;;41.00;31.75;;;;;13.41;86.64;101880.03;146609;567;47012;-70
2022/12/03 14:33:25;;;;;;;;;45.75;37.75;;;;;13.34;86.43;101877.87;146606;627;47010;-70
2022/12/03 14:36:17;;;;;;;;;78.67;66.67;;;;;13.36;86.33;101886.66;146607;666;46014;-70
2022/12/03 14:39:18;;;;;;;;;76.33;66.33;;;;;13.36;86.45;101898.00;146612;570;47010;-70